Westhampton, NY

3:49 AM EDT on August 31, 2015 (GMT -0400)
Newport Beach | | Change Station
CLOSE
Current Station
Personal Weather Station
Location: East Moriches, NY
Elevation: 30 ft
Nearby Weather Stations

Elev 30 ft 40.81 °N, 72.73 °W | Updated 1 second ago

Clear
Clear
73.9 °F
Feels Like 72 °F
N
2.9
Wind Variable Wind from West
Gusts 8.0 mph

Today
High -- | Low -- °F
--% Chance of Precip.
Yesterday
High -- | Low -- °F
Precip. -- in
6:16 AM 7:25 PM
Waning Gibbous, 96% visible
Pressure 30.03 in
Visibility 10.0 miles
Clouds Clear
Heat Index 72 °F
Dew Point 71 °F
Humidity 90%
Rainfall 0.00 in
Snow Depth Not available.
UV 0 out of 12
Pollen 9.90 out of 12
Air Quality Not available.
Flu Activity Not available.
METAR KFOK 310653Z 23006KT 10SM CLR 24/21 A3003 RMK AO2 SLP169 T02390211
Pressure 30.03 in
Visibility 10.0 miles
Clouds Clear
Heat Index 72 °F
Dew Point 71 °F
Humidity 90%
Rainfall 0.00 in
Snow Depth Not available.
UV 0 out of 12
Pollen 9.90 out of 12
Air Quality Not available.
Flu Activity Not available.
METAR KFOK 310653Z 23006KT 10SM CLR 24/21 A3003 RMK AO2 SLP169 T02390211

10-Day Weather Forecast

×

Almanac

Astronomy

Aug. 31, 2015 Rise Set
Actual Time
Civil Twilight
Nautical Twilight
Astronomical Twilight
Moon
Length of Visible Light
Length of Day
Tomorrow will be .
, % of the Moon is Illuminated

Today's Extremes

State Highs State Lows

Community

WunderPhotos

Upload Photos

1,851,220 photos uploaded!

WunderBlogs® & News

Nearby

Air Quality

  Air Quality AQ Index Pollutant
Not available.

Snow Depth

Station Depth Elevation

Earthquake Activity

City Distance Mag. Time & Date
Minimum magnitude displayed is 2.5.

Coastal Water Temperatures

Place Temperature

Stations

Nearby Weather Stations

Station Location Temp. Windchill Dew Point Humidity Wind Precip. Elev Updated Type